Time;durP1;ratioP1;P1;durP2;ratioP2;P2;SDS_P1;SDS_P2;PMS_P1;PMS_P2;Temp;Humidity;BMP_temperature;BMP_pressure;BME280_temperature;BME280_humidity;BME280_pressure;Samples;Min_cycle;Max_cycle;Signal;HPM_P1;HPM_P2
2021/12/21 00:00:12;;;;;;;;;15.50;13.00;;;;;6.31;55.03;101804.50;5036613;28;45364;-58
2021/12/21 00:02:39;;;;;;;;;17.40;15.20;;;;;6.27;54.98;101814.00;5018206;28;45355;-62
2021/12/21 00:05:04;;;;;;;;;18.20;16.20;;;;;6.31;54.84;101810.81;5018098;28;46782;-57
2021/12/21 00:07:30;;;;;;;;;23.00;17.25;;;;;6.27;55.64;101803.94;5035210;28;45326;-57
2021/12/21 00:09:56;;;;;;;;;17.25;13.75;;;;;6.30;55.58;101808.25;5036378;28;45369;-56
2021/12/21 00:12:25;;;;;;;;;18.75;15.00;;;;;6.26;54.68;101795.91;5036208;28;45346;-58
2021/12/21 00:15:00;;;;;;;;;22.00;14.60;;;;;6.21;56.17;101778.19;5035781;28;45936;-62
2021/12/21 00:17:49;;;;;;;;;22.60;19.80;;;;;6.30;55.82;101798.16;5036159;28;45389;-59
2021/12/21 00:25:21;;;;;;;;;22.40;18.00;;;;;6.19;56.00;101791.09;5018418;28;45497;-56
2021/12/21 00:27:51;;;;;;;;;16.60;16.20;;;;;6.19;55.43;101792.97;5035518;28;45545;-55
2021/12/21 00:30:16;;;;;;;;;18.80;17.60;;;;;5.87;55.25;101743.41;5018746;28;45331;-62
2021/12/21 00:32:42;;;;;;;;;19.25;14.75;;;;;6.21;55.53;101796.41;4985150;28;45369;-60
2021/12/21 00:35:08;;;;;;;;;18.50;17.50;;;;;6.18;54.34;101788.50;5035620;28;45424;-56
2021/12/21 00:37:33;;;;;;;;;17.50;14.75;;;;;6.09;55.18;101777.53;5035949;28;45473;-59
2021/12/21 00:39:59;;;;;;;;;18.75;17.25;;;;;6.18;55.09;101785.78;5035577;28;45470;-55
2021/12/21 00:42:25;;;;;;;;;21.50;17.50;;;;;5.97;55.52;101751.50;5018061;28;45526;-52
2021/12/21 00:44:50;;;;;;;;;17.50;13.50;;;;;6.14;55.90;101776.22;5035545;28;46150;-52
2021/12/21 00:47:16;;;;;;;;;18.00;14.75;;;;;6.17;55.93;101781.34;5035300;28;45471;-59
2021/12/21 00:49:45;;;;;;;;;17.60;15.20;;;;;6.12;55.79;101768.22;5035489;28;45347;-61
2021/12/21 00:52:12;;;;;;;;;24.20;15.80;;;;;6.18;55.31;101783.06;5035588;28;45227;-61
2021/12/21 00:54:37;;;;;;;;;19.80;15.80;;;;;6.00;55.67;101750.34;5035282;28;45796;-56
2021/12/21 00:57:04;;;;;;;;;22.00;13.75;;;;;6.16;55.38;101779.66;5035563;28;45383;-54
2021/12/21 00:59:31;;;;;;;;;16.60;13.80;;;;;6.15;54.99;101775.22;5017553;28;45524;-55
2021/12/21 01:01:56;;;;;;;;;13.40;11.80;;;;;6.13;55.06;101774.53;5017868;28;45338;-58
2021/12/21 01:04:27;;;;;;;;;24.00;20.25;;;;;5.74;56.19;101707.53;5035004;28;46085;-58
2021/12/21 01:12:33;;;;;;;;;17.20;16.20;;;;;6.10;56.19;101775.69;5020010;28;45821;-61
2021/12/21 01:17:33;;;;;;;;;13.00;11.60;;;;;6.10;55.28;101773.81;5034330;28;45403;-60
2021/12/21 01:20:05;;;;;;;;;12.60;9.80;;;;;6.07;54.17;101770.53;5001469;28;45391;-52
2021/12/21 01:27:57;;;;;;;;;16.00;13.80;;;;;6.04;54.91;101766.25;5034429;28;45365;-60
2021/12/21 01:33:30;;;;;;;;;12.20;11.00;;;;;5.93;55.43;101747.41;5001740;28;45523;-64
2021/12/21 01:35:57;;;;;;;;;14.20;13.20;;;;;6.00;56.21;101759.38;5034300;28;45480;-58
2021/12/21 01:38:31;;;;;;;;;14.60;13.40;;;;;5.94;55.92;101754.56;5017031;28;45447;-55
2021/12/21 01:51:25;;;;;;;;;12.20;10.00;;;;;5.95;54.68;101772.63;5034727;28;45352;-57
2021/12/21 01:53:50;;;;;;;;;15.00;12.75;;;;;5.54;54.61;101711.28;5000510;28;45552;-53
2021/12/21 01:56:16;;;;;;;;;13.50;13.50;;;;;5.88;54.92;101772.41;5034348;28;45439;-60
2021/12/21 01:58:42;;;;;;;;;13.25;11.25;;;;;5.68;55.56;101733.53;5034359;28;45316;-60
2021/12/21 02:01:09;;;;;;;;;13.25;12.00;;;;;5.87;55.88;101762.50;5035072;28;45288;-62
2021/12/21 02:03:35;;;;;;;;;16.20;13.00;;;;;5.85;55.99;101756.34;5000320;28;45405;-58
2021/12/21 02:06:00;;;;;;;;;14.50;13.50;;;;;5.85;56.05;101745.44;5034197;28;45330;-57
2021/12/21 02:08:26;;;;;;;;;15.25;13.00;;;;;5.88;55.83;101764.22;4999946;28;45429;-53
2021/12/21 02:10:52;;;;;;;;;13.50;9.50;;;;;5.89;55.29;101756.91;5034123;28;45452;-50
2021/12/21 02:13:17;;;;;;;;;14.75;12.75;;;;;5.82;55.14;101740.31;5034644;28;45366;-52
2021/12/21 02:15:43;;;;;;;;;14.75;10.00;;;;;5.90;55.94;101764.91;5016333;28;46127;-57
2021/12/21 02:18:34;;;;;;;;;19.00;17.25;;;;;5.91;55.94;101752.13;5032490;28;45469;-58
2021/12/21 02:21:07;;;;;;;;;15.80;11.80;;;;;5.90;55.81;101753.16;5034049;28;45277;-60
2021/12/21 02:23:37;;;;;;;;;12.40;8.80;;;;;5.89;55.39;101748.72;5020092;28;45385;-55
2021/12/21 02:26:18;;;;;;;;;16.60;13.80;;;;;5.90;55.95;101747.69;5034367;28;45649;-62
2021/12/21 02:31:09;;;;;;;;;16.00;11.75;;;;;5.87;55.35;101734.41;5037868;28;45459;-60
2021/12/21 02:33:35;;;;;;;;;20.75;16.00;;;;;5.88;55.40;101734.25;5038034;28;45360;-62
2021/12/21 02:36:01;;;;;;;;;21.20;14.80;;;;;5.89;55.51;101735.09;5036325;28;46715;-61
2021/12/21 02:38:27;;;;;;;;;23.25;15.00;;;;;5.84;55.63;101733.69;5037909;28;45294;-58
2021/12/21 02:40:52;;;;;;;;;13.50;10.75;;;;;5.79;54.88;101727.00;5037611;28;45310;-56
2021/12/21 02:43:18;;;;;;;;;15.75;14.00;;;;;5.76;56.48;101717.28;5038293;28;45257;-55
2021/12/21 02:45:44;;;;;;;;;12.25;12.25;;;;;5.80;55.96;101731.44;5037679;28;45536;-54
2021/12/21 02:48:09;;;;;;;;;15.75;13.75;;;;;5.68;55.68;101700.84;5037060;28;45457;-56
2021/12/21 02:50:36;;;;;;;;;18.50;13.75;;;;;5.84;54.87;101724.66;5037347;28;45307;-56
2021/12/21 02:53:02;;;;;;;;;13.00;13.00;;;;;5.37;55.78;101638.59;5037642;28;45217;-54
2021/12/21 02:55:27;;;;;;;;;17.00;14.00;;;;;5.78;54.55;101698.91;5035925;28;47951;-59
2021/12/21 02:57:53;;;;;;;;;15.75;14.00;;;;;5.91;54.48;101712.13;5035856;28;45357;-58
2021/12/21 03:00:18;;;;;;;;;17.75;12.50;;;;;5.89;54.90;101707.84;5037175;28;45385;-55
2021/12/21 03:02:44;;;;;;;;;21.00;15.25;;;;;5.46;54.78;101632.25;5031370;28;45586;-52
2021/12/21 03:05:10;;;;;;;;;13.75;11.50;;;;;5.89;54.49;101694.22;5020069;28;46640;-54
2021/12/21 03:10:23;;;;;;;;;14.80;12.80;;;;;5.55;53.96;101663.97;5037196;28;45427;-52
2021/12/21 03:15:17;;;;;;;;;15.00;12.20;;;;;5.73;54.34;101698.53;5037004;28;46362;-60
2021/12/21 03:17:43;;;;;;;;;12.80;11.60;;;;;5.76;55.11;101700.09;5037069;28;45527;-59
2021/12/21 03:20:09;;;;;;;;;13.00;11.75;;;;;5.62;55.61;101668.78;5036837;28;45379;-58
2021/12/21 03:22:34;;;;;;;;;20.25;17.75;;;;;5.53;55.78;101656.97;5037284;28;45567;-53
2021/12/21 03:25:00;;;;;;;;;13.50;13.50;;;;;5.86;55.36;101716.34;5036399;28;45664;-53
2021/12/21 03:27:25;;;;;;;;;15.00;11.25;;;;;5.84;55.53;101717.34;5036376;28;45469;-54
2021/12/21 03:29:51;;;;;;;;;13.50;13.00;;;;;5.76;55.95;101714.53;5036415;28;45239;-56
2021/12/21 03:32:16;;;;;;;;;12.25;12.00;;;;;5.75;56.09;101712.84;5037162;28;45432;-50
2021/12/21 03:34:41;;;;;;;;;13.00;13.00;;;;;5.71;55.86;101703.25;5036686;28;45299;-59
2021/12/21 03:37:12;;;;;;;;;20.25;15.75;;;;;5.68;55.35;101709.03;5036396;28;45421;-59
2021/12/21 03:39:41;;;;;;;;;17.00;13.20;;;;;5.47;55.97;101672.06;5002735;28;45393;-60
2021/12/21 03:42:07;;;;;;;;;10.80;10.80;;;;;5.66;56.54;101701.00;5035622;28;45260;-51
2021/12/21 03:44:32;;;;;;;;;16.25;10.75;;;;;5.63;56.37;101697.72;5018315;28;46970;-55
2021/12/21 03:46:58;;;;;;;;;18.00;13.00;;;;;5.58;56.42;101711.81;5018250;28;45445;-54
2021/12/21 03:52:01;;;;;;;;;16.20;15.60;;;;;5.52;56.73;101721.47;5019580;28;45398;-51
2021/12/21 03:54:26;;;;;;;;;18.50;15.50;;;;;5.49;56.57;101713.59;5036237;28;46317;-53
2021/12/21 03:56:52;;;;;;;;;12.25;11.00;;;;;5.48;56.73;101711.91;5018395;28;45401;-52
2021/12/21 03:59:18;;;;;;;;;13.25;13.00;;;;;5.50;57.25;101712.59;5018187;28;45340;-58
2021/12/21 04:01:44;;;;;;;;;17.80;16.20;;;;;5.50;57.21;101715.31;5001860;28;45461;-58
2021/12/21 04:04:10;;;;;;;;;11.50;11.00;;;;;5.46;56.79;101704.88;5026064;28;45824;-60
2021/12/21 04:06:35;;;;;;;;;12.50;12.25;;;;;5.47;57.43;101712.03;5017170;28;45490;-59
2021/12/21 04:09:03;;;;;;;;;12.25;9.75;;;;;5.23;57.66;101659.06;5033840;28;45486;-56
2021/12/21 04:11:28;;;;;;;;;15.00;12.60;;;;;5.51;56.84;101705.28;5001955;28;45343;-51
2021/12/21 04:13:57;;;;;;;;;9.75;9.75;;;;;5.37;57.55;101690.31;5035817;28;46526;-51
2021/12/21 04:16:23;;;;;;;;;14.00;10.00;;;;;5.40;57.47;101698.22;5017763;28;45592;-52
2021/12/21 04:18:48;;;;;;;;;14.75;13.25;;;;;5.39;57.22;101699.22;5036023;28;45438;-51
2021/12/21 04:21:14;;;;;;;;;15.00;13.00;;;;;5.43;57.38;101700.59;5035918;28;45383;-61
2021/12/21 04:23:40;;;;;;;;;18.80;17.20;;;;;5.38;57.42;101689.31;5035520;28;45880;-59
2021/12/21 04:26:07;;;;;;;;;22.25;15.50;;;;;5.39;58.13;101693.78;5034217;28;45696;-55
2021/12/21 04:28:32;;;;;;;;;18.00;13.60;;;;;5.37;57.24;101687.59;5035727;28;45367;-55
2021/12/21 04:30:58;;;;;;;;;13.00;12.00;;;;;5.24;58.02;101675.22;5035909;28;45611;-52
2021/12/21 04:33:23;;;;;;;;;17.00;13.00;;;;;5.40;58.41;101698.22;5035675;28;46238;-56
2021/12/21 04:35:49;;;;;;;;;14.25;13.00;;;;;5.41;57.96;101698.03;5035234;28;45406;-51
2021/12/21 04:38:27;;;;;;;;;17.50;13.00;;;;;5.40;57.88;101688.16;5035831;28;45339;-57
2021/12/21 04:40:59;;;;;;;;;11.20;11.20;;;;;5.31;58.45;101680.94;5035625;28;45364;-52
2021/12/21 04:43:24;;;;;;;;;10.00;8.60;;;;;5.41;58.06;101697.19;5035515;28;46551;-59
2021/12/21 04:45:50;;;;;;;;;10.25;9.25;;;;;5.29;57.74;101680.22;5033749;28;45223;-62
2021/12/21 04:48:15;;;;;;;;;15.25;12.00;;;;;5.09;58.24;101647.69;5035576;28;45373;-59
2021/12/21 04:50:41;;;;;;;;;16.00;11.50;;;;;5.36;58.44;101694.94;5001218;28;45441;-59
2021/12/21 04:53:07;;;;;;;;;15.75;12.00;;;;;5.37;58.66;101688.47;5016587;28;47289;-54
2021/12/21 04:55:32;;;;;;;;;11.75;9.25;;;;;5.36;57.89;101686.78;5017317;28;45342;-56
2021/12/21 04:57:58;;;;;;;;;12.25;8.75;;;;;5.35;58.86;101687.78;5035437;28;45457;-54
2021/12/21 05:00:23;;;;;;;;;12.75;8.75;;;;;5.29;58.85;101681.06;5035498;28;45442;-58
2021/12/21 05:02:49;;;;;;;;;12.75;12.75;;;;;5.29;58.82;101683.78;5035229;28;45440;-54
2021/12/21 05:05:14;;;;;;;;;14.25;12.75;;;;;5.28;58.09;101690.25;5035247;28;45430;-52
2021/12/21 05:07:43;;;;;;;;;13.75;12.00;;;;;5.27;58.24;101691.25;5035237;28;45506;-57
2021/12/21 05:10:10;;;;;;;;;10.40;10.40;;;;;4.99;58.71;101650.47;5035501;28;45369;-52
2021/12/21 05:12:36;;;;;;;;;13.40;12.40;;;;;5.24;58.90;101694.28;5035048;28;46721;-50
2021/12/21 05:15:03;;;;;;;;;13.80;12.20;;;;;5.23;59.37;101698.00;5000618;28;45343;-54
2021/12/21 05:17:29;;;;;;;;;15.20;12.40;;;;;5.20;58.59;101698.34;5034962;28;45465;-58
2021/12/21 05:19:54;;;;;;;;;16.50;13.75;;;;;5.15;58.52;101703.38;5015672;28;46842;-54
2021/12/21 05:22:20;;;;;;;;;15.75;14.25;;;;;4.94;59.08;101668.25;5034881;28;45724;-57
2021/12/21 05:24:45;;;;;;;;;12.25;10.00;;;;;5.13;59.43;101691.78;5034537;28;45669;-59
2021/12/21 05:27:11;;;;;;;;;12.25;12.00;;;;;5.01;59.18;101700.16;5035053;28;45375;-61
2021/12/21 05:29:36;;;;;;;;;14.00;14.00;;;;;5.04;58.63;101693.56;5017286;28;45394;-57
2021/12/21 05:32:03;;;;;;;;;14.75;13.00;;;;;5.00;58.67;101681.25;5034947;28;45990;-55
2021/12/21 05:34:28;;;;;;;;;17.80;12.60;;;;;4.99;58.70;101688.56;5034958;28;45367;-54
2021/12/21 05:36:54;;;;;;;;;16.25;13.75;;;;;5.04;59.74;101700.84;5034884;28;45468;-55
2021/12/21 05:39:23;;;;;;;;;16.00;13.00;;;;;5.06;59.70;101710.56;5035214;28;45515;-50
2021/12/21 05:41:54;;;;;;;;;13.60;12.20;;;;;5.07;59.16;101703.28;5034508;28;47044;-59
2021/12/21 05:44:21;;;;;;;;;17.20;11.00;;;;;5.07;58.78;101698.69;5034932;28;45445;-54
2021/12/21 05:46:51;;;;;;;;;6.40;6.40;;;;;4.85;58.81;101667.28;5034561;28;45339;-54
2021/12/21 05:49:17;;;;;;;;;16.60;12.60;;;;;5.05;59.08;101710.72;5034494;28;45283;-53
2021/12/21 05:51:43;;;;;;;;;12.50;10.75;;;;;5.05;59.45;101699.84;5034224;28;45899;-57
2021/12/21 05:54:08;;;;;;;;;9.00;9.00;;;;;5.04;59.25;101695.41;5034517;28;45382;-60
2021/12/21 05:56:34;;;;;;;;;17.00;13.00;;;;;5.01;58.71;101693.84;5034607;28;45395;-61
2021/12/21 05:59:02;;;;;;;;;12.75;10.00;;;;;4.99;58.56;101702.19;5034953;28;45221;-55
2021/12/21 06:01:29;;;;;;;;;12.60;10.40;;;;;4.96;59.42;101697.03;5034106;28;47136;-50
2021/12/21 06:03:54;;;;;;;;;12.00;8.00;;;;;4.91;59.17;101699.34;5034841;28;45309;-50
2021/12/21 06:06:20;;;;;;;;;15.50;12.75;;;;;4.93;58.61;101708.22;5038000;28;45363;-54
2021/12/21 06:08:46;;;;;;;;;16.50;12.75;;;;;4.89;58.27;101706.81;5038642;28;45280;-51
2021/12/21 06:11:14;;;;;;;;;11.20;11.20;;;;;4.88;59.89;101705.09;5037847;28;46131;-57
2021/12/21 06:25:21;;;;;;;;;13.40;10.80;;;;;4.77;58.69;101713.44;5030233;28;45312;-57
2021/12/21 06:27:16;;;;;;;;;16.00;12.00;;;;;4.74;59.67;101715.47;5036582;28;45583;-59
2021/12/21 06:29:42;;;;;;;;;11.25;11.00;;;;;4.69;58.47;101715.03;5037530;28;45584;-59
2021/12/21 06:32:08;;;;;;;;;8.75;8.25;;;;;4.64;58.64;101706.47;5035841;28;46879;-60
2021/12/21 06:34:34;;;;;;;;;14.40;8.60;;;;;4.58;59.02;101705.22;5037358;28;45519;-51
2021/12/21 06:37:00;;;;;;;;;9.00;8.00;;;;;4.46;58.98;101704.53;5036100;28;45565;-57
2021/12/21 06:39:28;;;;;;;;;10.50;8.75;;;;;4.46;58.80;101706.41;5037874;28;45571;-53
2021/12/21 06:41:53;;;;;;;;;10.60;10.60;;;;;4.34;59.44;101698.41;5037081;28;45479;-57
2021/12/21 06:44:19;;;;;;;;;9.75;8.00;;;;;4.43;59.58;101695.84;5036101;28;45380;-56
2021/12/21 06:46:54;;;;;;;;;12.25;9.50;;;;;4.52;59.41;101699.50;5037215;28;45356;-57
2021/12/21 06:52:04;;;;;;;;;9.60;8.40;;;;;4.46;59.71;101690.09;5037339;28;45770;-53
2021/12/21 06:54:29;;;;;;;;;12.60;9.00;;;;;4.55;59.70;101704.66;5037114;28;45336;-52
2021/12/21 06:56:55;;;;;;;;;4.25;3.00;;;;;4.57;59.11;101702.63;5019199;28;45353;-53
2021/12/21 06:59:20;;;;;;;;;11.00;9.75;;;;;4.50;59.65;101690.66;5037484;28;45578;-60
2021/12/21 07:01:48;;;;;;;;;12.75;8.75;;;;;4.43;59.60;101679.53;5035220;28;46767;-57
2021/12/21 07:04:14;;;;;;;;;16.40;12.20;;;;;4.51;59.58;101704.09;5024165;28;45406;-59
2021/12/21 07:06:40;;;;;;;;;11.80;10.60;;;;;4.48;60.28;101702.53;5029320;28;45401;-57
2021/12/21 07:19:29;;;;;;;;;11.20;9.20;;;;;4.47;60.22;101702.66;5037250;28;45323;-57
2021/12/21 07:21:55;;;;;;;;;15.50;10.50;;;;;4.35;59.67;101699.28;5036578;28;45505;-54
2021/12/21 07:24:21;;;;;;;;;13.50;11.75;;;;;4.36;59.51;101705.59;5035121;28;45703;-57
2021/12/21 07:26:46;;;;;;;;;8.50;7.50;;;;;4.29;59.45;101692.56;5035472;28;45384;-55
2021/12/21 07:29:12;;;;;;;;;12.00;12.00;;;;;4.31;59.54;101698.72;5037037;28;45292;-59
2021/12/21 07:31:37;;;;;;;;;10.50;10.50;;;;;4.26;59.56;101697.44;5035445;28;45331;-53
2021/12/21 07:34:03;;;;;;;;;11.25;11.00;;;;;4.35;59.52;101715.59;5037307;28;45319;-55
2021/12/21 07:36:33;;;;;;;;;9.00;9.00;;;;;4.33;59.96;101718.44;5036678;28;45347;-55
2021/12/21 07:39:04;;;;;;;;;15.00;11.60;;;;;4.14;59.85;101697.59;5036835;28;45368;-57
2021/12/21 07:41:29;;;;;;;;;8.60;8.60;;;;;4.31;60.36;101716.88;5036392;28;45891;-59
2021/12/21 07:43:55;;;;;;;;;10.75;10.75;;;;;4.33;59.35;101717.59;5036914;28;45408;-52
2021/12/21 07:46:21;;;;;;;;;9.00;9.00;;;;;4.31;59.29;101709.59;5052463;28;45476;-54
2021/12/21 07:48:46;;;;;;;;;10.50;10.50;;;;;4.25;59.55;101693.88;5036843;28;45421;-53
2021/12/21 07:51:12;;;;;;;;;9.00;7.75;;;;;4.33;60.08;101698.56;5036763;28;45857;-52
2021/12/21 07:53:38;;;;;;;;;15.20;11.80;;;;;4.38;59.71;101714.44;5035297;28;45895;-52
2021/12/21 07:56:04;;;;;;;;;14.00;9.75;;;;;4.31;60.00;101714.16;5035299;28;45490;-53
2021/12/21 07:58:30;;;;;;;;;12.75;11.50;;;;;4.37;59.38;101719.00;5035563;28;45284;-50
2021/12/21 08:00:57;;;;;;;;;21.20;13.40;;;;;4.42;58.60;101719.44;5034742;28;47587;-61
2021/12/21 08:03:22;;;;;;;;;12.80;11.80;;;;;4.25;59.11;101682.13;5036678;28;45266;-56
2021/12/21 08:05:51;;;;;;;;;13.25;11.75;;;;;4.22;58.68;101677.88;5034933;28;45208;-61
2021/12/21 08:08:21;;;;;;;;;12.80;8.80;;;;;4.35;58.55;101715.59;5036584;28;45230;-56
2021/12/21 08:10:51;;;;;;;;;17.00;12.40;;;;;4.16;58.64;101684.72;5036175;28;45433;-53
2021/12/21 08:13:17;;;;;;;;;14.80;12.60;;;;;4.35;58.95;101704.72;5036374;28;45531;-51
2021/12/21 08:15:43;;;;;;;;;15.00;12.75;;;;;4.47;58.92;101719.84;5036626;28;45380;-54
2021/12/21 08:18:09;;;;;;;;;10.40;10.00;;;;;4.29;58.75;101692.56;5036267;28;45372;-54
2021/12/21 08:20:35;;;;;;;;;14.50;12.00;;;;;4.53;58.49;101721.09;5036691;28;45791;-58
2021/12/21 08:23:02;;;;;;;;;12.20;12.20;;;;;4.12;58.26;101683.31;5035760;28;45281;-59
2021/12/21 08:25:28;;;;;;;;;16.60;14.80;;;;;4.29;58.80;101721.59;5036123;28;45299;-55
2021/12/21 08:27:54;;;;;;;;;15.40;11.20;;;;;4.30;58.80;101726.91;5035350;28;45298;-55
2021/12/21 08:30:20;;;;;;;;;17.20;11.60;;;;;4.28;58.54;101725.34;5035908;28;45875;-56
2021/12/21 08:32:45;;;;;;;;;16.75;14.75;;;;;4.26;58.76;101716.47;5035695;28;45400;-55
2021/12/21 08:35:12;;;;;;;;;13.75;13.75;;;;;4.31;59.55;101720.47;5035922;28;45394;-56
2021/12/21 08:37:39;;;;;;;;;15.60;11.40;;;;;4.24;58.90;101710.31;5018151;28;45636;-55
2021/12/21 08:40:07;;;;;;;;;11.40;9.80;;;;;4.36;58.85;101730.03;5035827;28;46400;-61
2021/12/21 08:42:33;;;;;;;;;16.60;13.80;;;;;3.82;58.97;101628.19;5035535;28;45296;-57
2021/12/21 08:45:01;;;;;;;;;20.20;15.20;;;;;4.25;58.62;101717.44;5035739;28;45326;-53
2021/12/21 08:47:28;;;;;;;;;11.60;11.60;;;;;4.25;58.81;101726.47;5017896;28;45567;-53
2021/12/21 08:49:53;;;;;;;;;15.40;11.40;;;;;4.26;59.12;101724.63;5035277;28;45610;-50
2021/12/21 08:52:19;;;;;;;;;18.00;16.00;;;;;4.25;59.45;101731.03;5035518;28;45285;-51
2021/12/21 08:54:44;;;;;;;;;16.50;13.25;;;;;4.22;58.54;101725.91;5035578;28;45259;-54
2021/12/21 08:57:10;;;;;;;;;8.50;8.50;;;;;4.20;58.84;101729.63;5035408;28;45319;-54
2021/12/21 08:59:36;;;;;;;;;17.50;10.00;;;;;4.25;58.41;101733.75;5035101;28;46079;-55
2021/12/21 09:02:02;;;;;;;;;14.25;11.75;;;;;4.22;59.19;101725.91;5035140;28;45391;-56
2021/12/21 09:04:28;;;;;;;;;13.00;12.60;;;;;4.20;59.10;101724.22;5035341;28;45273;-56
2021/12/21 09:06:53;;;;;;;;;17.00;15.25;;;;;4.33;58.46;101729.31;5017585;28;45560;-57
2021/12/21 09:09:19;;;;;;;;;12.75;11.75;;;;;4.37;59.00;101732.59;5017199;28;46462;-59
2021/12/21 09:11:45;;;;;;;;;16.50;12.75;;;;;4.42;59.33;101726.72;5035120;28;45427;-57
2021/12/21 09:14:12;;;;;;;;;12.00;12.00;;;;;4.48;58.50;101737.88;5018520;28;46315;-58
2021/12/21 09:16:38;;;;;;;;;20.20;12.00;;;;;4.46;58.49;101737.16;4981969;28;45538;-53
2021/12/21 09:19:03;;;;;;;;;25.50;19.00;;;;;4.45;58.32;101732.75;5009195;28;45841;-56
2021/12/21 09:21:30;;;;;;;;;19.75;17.00;;;;;4.42;58.37;101740.31;5032897;28;45381;-60
2021/12/21 09:23:56;;;;;;;;;19.00;15.20;;;;;4.48;59.47;101748.75;5033160;28;45818;-60
2021/12/21 09:26:21;;;;;;;;;12.50;11.50;;;;;4.20;58.79;101710.63;5033229;28;45588;-55
2021/12/21 09:28:47;;;;;;;;;21.25;18.00;;;;;4.45;59.43;101742.75;5033031;28;46221;-57
2021/12/21 09:31:14;;;;;;;;;16.25;14.25;;;;;4.50;58.53;101736.88;5035173;28;45276;-61
2021/12/21 09:33:39;;;;;;;;;16.00;14.00;;;;;4.59;58.81;101745.00;5034920;28;45899;-57
2021/12/21 09:36:05;;;;;;;;;15.75;13.00;;;;;4.51;58.32;101738.56;5034596;28;46798;-56
2021/12/21 09:38:30;;;;;;;;;23.25;16.00;;;;;4.58;59.12;101743.28;5033500;28;46492;-55
2021/12/21 09:40:56;;;;;;;;;21.25;16.00;;;;;4.52;57.94;101737.56;5034483;28;45330;-57
2021/12/21 09:43:22;;;;;;;;;17.50;11.75;;;;;4.31;58.08;101722.31;5016951;28;45750;-52
2021/12/21 09:45:47;;;;;;;;;13.75;12.75;;;;;4.31;59.21;101746.78;5034754;28;45300;-51
2021/12/21 09:48:13;;;;;;;;;19.25;16.00;;;;;4.27;58.54;101745.38;5034746;28;45394;-54
2021/12/21 09:50:38;;;;;;;;;22.50;18.75;;;;;4.30;58.37;101750.50;5016752;28;45387;-57
2021/12/21 09:53:04;;;;;;;;;18.75;15.00;;;;;4.23;59.43;101738.50;5017171;28;45429;-59
2021/12/21 09:55:30;;;;;;;;;16.75;16.25;;;;;4.38;59.52;101753.34;5016910;28;45280;-60
2021/12/21 09:57:55;;;;;;;;;18.75;14.00;;;;;4.54;59.45;101752.72;5034351;28;45364;-60
2021/12/21 10:00:24;;;;;;;;;16.00;16.00;;;;;4.60;59.20;101759.47;5034377;28;45335;-55
2021/12/21 10:02:50;;;;;;;;;19.40;17.60;;;;;4.47;58.76;101740.72;5032956;28;45393;-57
2021/12/21 10:05:20;;;;;;;;;19.25;18.75;;;;;4.38;58.62;101728.88;5016891;28;45576;-58
2021/12/21 10:08:09;;;;;;;;;18.00;16.20;;;;;4.52;58.60;101753.88;5032651;28;45420;-56
2021/12/21 10:10:39;;;;;;;;;19.40;15.40;;;;;4.51;59.23;101752.16;5016484;28;45478;-56
2021/12/21 10:13:12;;;;;;;;;23.20;22.00;;;;;4.56;58.00;101755.31;5016844;28;45396;-57
2021/12/21 10:15:41;;;;;;;;;23.40;18.40;;;;;4.55;58.42;101749.03;5026539;28;45598;-57
2021/12/21 10:18:07;;;;;;;;;22.80;16.80;;;;;4.41;58.00;101719.56;5054027;28;45650;-61
2021/12/21 10:20:43;;;;;;;;;18.00;16.00;;;;;4.63;58.14;101759.16;5054519;28;45335;-59
2021/12/21 10:23:13;;;;;;;;;19.80;19.00;;;;;4.46;58.78;101723.56;5036696;28;45261;-58
2021/12/21 10:25:43;;;;;;;;;18.60;16.40;;;;;4.70;58.93;101765.72;5054959;28;45376;-57
2021/12/21 10:28:09;;;;;;;;;23.20;19.00;;;;;4.73;58.91;101757.28;5054273;28;46166;-56
2021/12/21 10:30:46;;;;;;;;;27.25;17.25;;;;;4.76;58.44;101753.41;5054247;28;45448;-57
2021/12/21 10:33:11;;;;;;;;;24.20;19.20;;;;;4.75;58.77;101751.66;5069579;28;45461;-56
2021/12/21 10:35:39;;;;;;;;;19.00;17.25;;;;;4.75;58.53;101747.09;5054836;28;45324;-56
2021/12/21 10:38:05;;;;;;;;;24.20;20.20;;;;;4.53;57.96;101695.81;5052757;28;46920;-57
2021/12/21 10:40:31;;;;;;;;;27.75;21.25;;;;;4.81;58.02;101733.91;5053281;28;45340;-55
2021/12/21 10:43:01;;;;;;;;;25.50;19.75;;;;;4.86;58.06;101750.66;5069932;28;45381;-62
2021/12/21 10:45:30;;;;;;;;;26.60;24.20;;;;;4.86;58.09;101747.91;5053246;28;45630;-58
2021/12/21 10:47:56;;;;;;;;;23.40;21.40;;;;;4.90;57.58;101740.31;5054130;28;45437;-54
2021/12/21 10:50:23;;;;;;;;;26.75;18.00;;;;;4.67;58.85;101717.06;5055093;28;45208;-55
2021/12/21 10:52:53;;;;;;;;;22.80;19.80;;;;;4.68;58.09;101713.34;5057626;28;45198;-59
2021/12/21 10:55:33;;;;;;;;;22.00;19.60;;;;;4.65;58.48;101713.66;5056829;28;45440;-61
2021/12/21 10:58:06;;;;;;;;;25.60;20.60;;;;;4.80;57.62;101743.91;5056216;28;45284;-60
2021/12/21 11:00:32;;;;;;;;;21.20;19.60;;;;;4.81;58.27;101739.34;5057830;28;45263;-57
2021/12/21 11:02:58;;;;;;;;;24.00;19.00;;;;;4.82;59.00;101739.22;5057769;28;45152;-56
2021/12/21 11:05:24;;;;;;;;;21.25;18.50;;;;;4.79;57.65;101733.22;5032304;28;45925;-54
2021/12/21 11:07:59;;;;;;;;;26.00;24.00;;;;;4.80;58.65;101734.91;5036104;28;45382;-59
2021/12/21 11:10:30;;;;;;;;;25.80;20.00;;;;;4.82;58.40;101741.94;5036426;28;45445;-59
2021/12/21 11:12:55;;;;;;;;;20.20;19.60;;;;;4.61;58.63;101699.47;5035791;28;45363;-54
2021/12/21 11:15:28;;;;;;;;;25.75;20.50;;;;;4.60;58.98;101695.03;5015351;28;45439;-56
2021/12/21 11:17:53;;;;;;;;;21.60;19.40;;;;;4.91;58.70;101737.44;5036729;28;46910;-63
2021/12/21 11:20:19;;;;;;;;;16.50;16.50;;;;;4.92;58.35;101743.75;5035349;28;45393;-61
2021/12/21 11:22:45;;;;;;;;;24.50;20.25;;;;;4.93;58.53;101732.72;5036375;28;45462;-56
2021/12/21 11:25:11;;;;;;;;;26.00;23.00;;;;;4.93;58.08;101731.84;5018244;28;45588;-59
2021/12/21 11:27:38;;;;;;;;;26.80;24.00;;;;;4.94;58.11;101734.41;4973197;28;46083;-60
2021/12/21 11:30:13;;;;;;;;;19.00;17.00;;;;;5.15;57.86;101725.16;5013545;28;45529;-58
2021/12/21 11:32:44;;;;;;;;;28.60;21.20;;;;;9.47;49.77;101718.25;5031957;28;45490;-63
2021/12/21 11:37:40;;;;;;;;;22.80;20.40;;;;;15.71;34.40;101686.13;5026680;28;46362;-62
2021/12/21 11:40:08;;;;;;;;;28.00;24.00;;;;;13.25;38.94;101673.94;4996960;28;45393;-63
2021/12/21 11:42:43;;;;;;;;;24.20;21.20;;;;;11.44;41.72;101701.88;5013556;28;45617;-61
2021/12/21 11:45:22;;;;;;;;;24.20;19.00;;;;;9.88;44.97;101697.94;4998878;28;45502;-60
2021/12/21 11:47:55;;;;;;;;;22.00;20.60;;;;;8.77;46.94;101674.28;4993381;28;47582;-53
2021/12/21 11:50:21;;;;;;;;;24.00;19.80;;;;;8.02;48.41;101657.16;4991711;28;45389;-60
2021/12/21 11:52:52;;;;;;;;;32.25;25.25;;;;;7.76;50.20;101705.50;4974160;28;45490;-63
2021/12/21 11:55:20;;;;;;;;;24.60;24.00;;;;;7.42;50.43;101701.03;4977736;28;45660;-59
2021/12/21 11:57:50;;;;;;;;;24.20;20.40;;;;;6.89;51.39;101663.81;4991352;28;46352;-54
2021/12/21 12:00:24;;;;;;;;;28.40;24.60;;;;;6.78;52.25;101681.34;4995117;28;45478;-64
2021/12/21 12:02:50;;;;;;;;;31.40;26.00;;;;;6.64;52.88;101699.22;4976571;28;45511;-61
2021/12/21 12:05:23;;;;;;;;;31.00;27.80;;;;;6.37;53.29;101683.88;4996548;28;45503;-56
2021/12/21 12:08:18;;;;;;;;;27.20;22.80;;;;;6.17;54.06;101697.72;5031321;28;46215;-57
2021/12/21 12:10:57;;;;;;;;;24.20;22.00;;;;;6.02;54.85;101694.69;5014560;28;45362;-57
2021/12/21 12:13:40;;;;;;;;;30.40;25.80;;;;;5.94;54.20;101695.44;5036508;28;45414;-60
2021/12/21 12:16:10;;;;;;;;;27.60;23.80;;;;;5.92;55.16;101680.31;5036429;28;45331;-57
2021/12/21 12:18:40;;;;;;;;;25.80;20.40;;;;;5.83;55.65;101671.19;5017796;28;48636;-57
2021/12/21 12:21:14;;;;;;;;;30.80;26.00;;;;;5.73;54.75;101682.19;5035779;28;45358;-63
2021/12/21 12:24:00;;;;;;;;;29.40;26.20;;;;;5.68;56.52;101674.47;5022824;28;45458;-54
2021/12/21 12:26:30;;;;;;;;;28.40;22.20;;;;;5.59;55.99;101660.94;5034667;28;45426;-54
2021/12/21 12:28:58;;;;;;;;;31.00;24.40;;;;;5.63;56.54;101665.06;5035763;28;46176;-60